sensor_id;sensor_type;location;lat;lon;timestamp;P1;durP1;ratioP1;P2;durP2;ratioP2
42364;SDS011;28498;54.400;18.566;2022-08-04T00:05:26;4.65;;;2.50;;
42364;SDS011;28498;54.400;18.566;2022-08-04T00:10:55;4.18;;;2.95;;
42364;SDS011;28498;54.400;18.566;2022-08-04T00:13:25;5.88;;;3.20;;
42364;SDS011;28498;54.400;18.566;2022-08-04T00:15:56;4.53;;;2.90;;
42364;SDS011;28498;54.400;18.566;2022-08-04T00:18:39;6.10;;;2.95;;
42364;SDS011;28498;54.400;18.566;2022-08-04T00:21:09;3.65;;;3.05;;
42364;SDS011;28498;54.400;18.566;2022-08-04T00:23:42;4.50;;;3.00;;
42364;SDS011;28498;54.400;18.566;2022-08-04T00:26:29;5.50;;;2.90;;
42364;SDS011;28498;54.400;18.566;2022-08-04T00:28:58;7.97;;;3.75;;
42364;SDS011;28498;54.400;18.566;2022-08-04T00:31:26;6.00;;;2.97;;
42364;SDS011;28498;54.400;18.566;2022-08-04T00:34:13;4.88;;;2.92;;
42364;SDS011;28498;54.400;18.566;2022-08-04T00:36:44;3.65;;;2.55;;
42364;SDS011;28498;54.400;18.566;2022-08-04T00:39:12;7.28;;;3.72;;
42364;SDS011;28498;54.400;18.566;2022-08-04T00:44:55;4.70;;;3.10;;
42364;SDS011;28498;54.400;18.566;2022-08-04T00:47:50;3.90;;;2.67;;
42364;SDS011;28498;54.400;18.566;2022-08-04T00:53:27;4.25;;;2.80;;
42364;SDS011;28498;54.400;18.566;2022-08-04T01:01:46;4.10;;;2.58;;
42364;SDS011;28498;54.400;18.566;2022-08-04T01:04:23;4.95;;;2.70;;
42364;SDS011;28498;54.400;18.566;2022-08-04T01:15:51;4.13;;;2.65;;
42364;SDS011;28498;54.400;18.566;2022-08-04T01:29:22;5.10;;;2.60;;
42364;SDS011;28498;54.400;18.566;2022-08-04T01:38:22;4.97;;;2.90;;
42364;SDS011;28498;54.400;18.566;2022-08-04T01:41:01;4.78;;;2.90;;
42364;SDS011;28498;54.400;18.566;2022-08-04T01:43:31;3.80;;;2.92;;
42364;SDS011;28498;54.400;18.566;2022-08-04T01:46:00;4.45;;;2.70;;
42364;SDS011;28498;54.400;18.566;2022-08-04T01:48:29;5.07;;;3.00;;
42364;SDS011;28498;54.400;18.566;2022-08-04T01:50:58;4.57;;;2.80;;
42364;SDS011;28498;54.400;18.566;2022-08-04T01:53:30;5.35;;;2.75;;
42364;SDS011;28498;54.400;18.566;2022-08-04T01:56:03;5.28;;;3.00;;
42364;SDS011;28498;54.400;18.566;2022-08-04T01:58:31;4.55;;;2.85;;
42364;SDS011;28498;54.400;18.566;2022-08-04T02:01:08;5.97;;;2.80;;
42364;SDS011;28498;54.400;18.566;2022-08-04T02:03:38;5.40;;;2.90;;
42364;SDS011;28498;54.400;18.566;2022-08-04T02:06:42;3.40;;;2.78;;
42364;SDS011;28498;54.400;18.566;2022-08-04T02:09:32;4.72;;;2.80;;
42364;SDS011;28498;54.400;18.566;2022-08-04T02:15:35;5.75;;;2.65;;
42364;SDS011;28498;54.400;18.566;2022-08-04T02:21:13;4.05;;;2.83;;
42364;SDS011;28498;54.400;18.566;2022-08-04T02:23:45;5.50;;;3.00;;
42364;SDS011;28498;54.400;18.566;2022-08-04T02:26:19;7.03;;;3.10;;
42364;SDS011;28498;54.400;18.566;2022-08-04T02:28:54;4.18;;;2.92;;
42364;SDS011;28498;54.400;18.566;2022-08-04T02:31:56;4.45;;;3.40;;
42364;SDS011;28498;54.400;18.566;2022-08-04T02:37:05;4.97;;;3.03;;
42364;SDS011;28498;54.400;18.566;2022-08-04T02:39:37;5.00;;;3.00;;
42364;SDS011;28498;54.400;18.566;2022-08-04T02:42:14;4.45;;;2.70;;
42364;SDS011;28498;54.400;18.566;2022-08-04T02:44:42;6.15;;;2.95;;
42364;SDS011;28498;54.400;18.566;2022-08-04T02:47:19;4.70;;;3.08;;
42364;SDS011;28498;54.400;18.566;2022-08-04T02:49:48;9.73;;;3.97;;
42364;SDS011;28498;54.400;18.566;2022-08-04T02:52:18;5.57;;;3.17;;
42364;SDS011;28498;54.400;18.566;2022-08-04T02:54:46;6.18;;;3.65;;
42364;SDS011;28498;54.400;18.566;2022-08-04T02:57:16;4.53;;;2.90;;
42364;SDS011;28498;54.400;18.566;2022-08-04T03:02:40;4.03;;;3.28;;
42364;SDS011;28498;54.400;18.566;2022-08-04T03:05:48;5.15;;;2.80;;
42364;SDS011;28498;54.400;18.566;2022-08-04T03:22:40;4.93;;;3.45;;
42364;SDS011;28498;54.400;18.566;2022-08-04T03:37:28;5.72;;;3.20;;
42364;SDS011;28498;54.400;18.566;2022-08-04T03:40:20;4.38;;;3.42;;
42364;SDS011;28498;54.400;18.566;2022-08-04T03:43:07;4.88;;;3.28;;
42364;SDS011;28498;54.400;18.566;2022-08-04T03:51:28;5.57;;;3.70;;
42364;SDS011;28498;54.400;18.566;2022-08-04T04:13:57;4.18;;;3.10;;
42364;SDS011;28498;54.400;18.566;2022-08-04T04:22:22;4.65;;;3.72;;
42364;SDS011;28498;54.400;18.566;2022-08-04T04:37:19;5.70;;;4.03;;
42364;SDS011;28498;54.400;18.566;2022-08-04T04:46:11;6.32;;;3.97;;
42364;SDS011;28498;54.400;18.566;2022-08-04T04:48:54;8.93;;;4.07;;
42364;SDS011;28498;54.400;18.566;2022-08-04T04:51:43;7.57;;;5.32;;
42364;SDS011;28498;54.400;18.566;2022-08-04T04:54:24;5.38;;;4.18;;
42364;SDS011;28498;54.400;18.566;2022-08-04T04:57:02;8.33;;;4.40;;
42364;SDS011;28498;54.400;18.566;2022-08-04T04:59:54;7.18;;;4.53;;
42364;SDS011;28498;54.400;18.566;2022-08-04T05:08:48;7.40;;;4.50;;
42364;SDS011;28498;54.400;18.566;2022-08-04T05:11:57;5.80;;;4.28;;
42364;SDS011;28498;54.400;18.566;2022-08-04T05:14:52;6.28;;;4.28;;
42364;SDS011;28498;54.400;18.566;2022-08-04T05:17:26;7.78;;;4.30;;
42364;SDS011;28498;54.400;18.566;2022-08-04T05:20:02;6.53;;;4.70;;
42364;SDS011;28498;54.400;18.566;2022-08-04T05:22:34;12.45;;;4.45;;
42364;SDS011;28498;54.400;18.566;2022-08-04T05:25:07;8.13;;;4.20;;
42364;SDS011;28498;54.400;18.566;2022-08-04T05:28:11;6.45;;;3.90;;
42364;SDS011;28498;54.400;18.566;2022-08-04T05:30:49;8.63;;;4.93;;
42364;SDS011;28498;54.400;18.566;2022-08-04T05:33:20;8.45;;;4.22;;
42364;SDS011;28498;54.400;18.566;2022-08-04T05:35:57;8.43;;;4.80;;
42364;SDS011;28498;54.400;18.566;2022-08-04T05:38:48;5.88;;;4.13;;
42364;SDS011;28498;54.400;18.566;2022-08-04T05:41:18;10.57;;;4.60;;
42364;SDS011;28498;54.400;18.566;2022-08-04T05:43:47;8.95;;;4.60;;
42364;SDS011;28498;54.400;18.566;2022-08-04T05:46:15;10.25;;;4.90;;
42364;SDS011;28498;54.400;18.566;2022-08-04T05:48:44;18.65;;;5.00;;
42364;SDS011;28498;54.400;18.566;2022-08-04T05:51:12;5.88;;;4.00;;
42364;SDS011;28498;54.400;18.566;2022-08-04T05:53:41;7.18;;;3.97;;
42364;SDS011;28498;54.400;18.566;2022-08-04T05:56:11;9.95;;;4.32;;
42364;SDS011;28498;54.400;18.566;2022-08-04T05:58:40;9.65;;;4.30;;
42364;SDS011;28498;54.400;18.566;2022-08-04T06:01:09;7.65;;;4.18;;
42364;SDS011;28498;54.400;18.566;2022-08-04T06:03:38;27.33;;;7.50;;
42364;SDS011;28498;54.400;18.566;2022-08-04T06:06:06;6.30;;;4.22;;
42364;SDS011;28498;54.400;18.566;2022-08-04T06:08:34;7.90;;;4.40;;
42364;SDS011;28498;54.400;18.566;2022-08-04T06:11:03;7.22;;;4.40;;
42364;SDS011;28498;54.400;18.566;2022-08-04T06:13:35;5.85;;;3.80;;
42364;SDS011;28498;54.400;18.566;2022-08-04T06:16:15;9.40;;;5.15;;
42364;SDS011;28498;54.400;18.566;2022-08-04T06:18:56;5.15;;;4.10;;
42364;SDS011;28498;54.400;18.566;2022-08-04T06:21:47;9.13;;;5.45;;
42364;SDS011;28498;54.400;18.566;2022-08-04T06:24:19;8.50;;;4.07;;
42364;SDS011;28498;54.400;18.566;2022-08-04T06:26:50;6.15;;;4.32;;
42364;SDS011;28498;54.400;18.566;2022-08-04T06:29:18;6.13;;;4.38;;
42364;SDS011;28498;54.400;18.566;2022-08-04T06:31:55;7.45;;;4.43;;
42364;SDS011;28498;54.400;18.566;2022-08-04T06:34:44;6.72;;;4.40;;
42364;SDS011;28498;54.400;18.566;2022-08-04T06:37:11;6.55;;;4.30;;
42364;SDS011;28498;54.400;18.566;2022-08-04T06:40:00;12.95;;;4.53;;
42364;SDS011;28498;54.400;18.566;2022-08-04T06:42:49;11.95;;;4.70;;
42364;SDS011;28498;54.400;18.566;2022-08-04T06:45:18;11.43;;;4.93;;
42364;SDS011;28498;54.400;18.566;2022-08-04T06:47:46;10.45;;;5.53;;
42364;SDS011;28498;54.400;18.566;2022-08-04T06:50:15;14.60;;;5.22;;
42364;SDS011;28498;54.400;18.566;2022-08-04T06:53:02;12.77;;;5.28;;
42364;SDS011;28498;54.400;18.566;2022-08-04T06:59:11;6.47;;;4.72;;
42364;SDS011;28498;54.400;18.566;2022-08-04T07:01:39;11.77;;;4.80;;
42364;SDS011;28498;54.400;18.566;2022-08-04T07:04:09;8.70;;;4.97;;
42364;SDS011;28498;54.400;18.566;2022-08-04T07:06:36;7.72;;;4.93;;
42364;SDS011;28498;54.400;18.566;2022-08-04T07:09:04;7.28;;;4.72;;
42364;SDS011;28498;54.400;18.566;2022-08-04T07:11:32;10.70;;;5.15;;
42364;SDS011;28498;54.400;18.566;2022-08-04T07:18:16;6.22;;;4.55;;
42364;SDS011;28498;54.400;18.566;2022-08-04T07:20:44;8.82;;;4.90;;
42364;SDS011;28498;54.400;18.566;2022-08-04T07:23:12;10.50;;;5.03;;
42364;SDS011;28498;54.400;18.566;2022-08-04T07:25:43;9.05;;;5.22;;
42364;SDS011;28498;54.400;18.566;2022-08-04T07:28:36;9.98;;;5.50;;
42364;SDS011;28498;54.400;18.566;2022-08-04T07:31:04;9.07;;;5.07;;
42364;SDS011;28498;54.400;18.566;2022-08-04T07:33:34;9.00;;;5.22;;
42364;SDS011;28498;54.400;18.566;2022-08-04T07:36:02;9.15;;;5.07;;
42364;SDS011;28498;54.400;18.566;2022-08-04T07:38:41;8.35;;;5.10;;
42364;SDS011;28498;54.400;18.566;2022-08-04T07:41:19;19.13;;;5.65;;
42364;SDS011;28498;54.400;18.566;2022-08-04T07:44:04;11.60;;;4.88;;
42364;SDS011;28498;54.400;18.566;2022-08-04T07:46:32;9.02;;;4.78;;
42364;SDS011;28498;54.400;18.566;2022-08-04T07:48:59;19.23;;;5.32;;
42364;SDS011;28498;54.400;18.566;2022-08-04T07:51:27;12.32;;;5.20;;
42364;SDS011;28498;54.400;18.566;2022-08-04T07:53:56;11.60;;;4.88;;
42364;SDS011;28498;54.400;18.566;2022-08-04T07:56:24;6.93;;;4.78;;
42364;SDS011;28498;54.400;18.566;2022-08-04T07:58:52;11.45;;;4.88;;
42364;SDS011;28498;54.400;18.566;2022-08-04T08:05:00;10.45;;;5.00;;
42364;SDS011;28498;54.400;18.566;2022-08-04T08:07:27;7.43;;;4.45;;
42364;SDS011;28498;54.400;18.566;2022-08-04T08:09:54;9.82;;;4.60;;
42364;SDS011;28498;54.400;18.566;2022-08-04T08:12:22;6.57;;;4.00;;
42364;SDS011;28498;54.400;18.566;2022-08-04T08:15:10;10.00;;;4.90;;
42364;SDS011;28498;54.400;18.566;2022-08-04T08:17:41;6.63;;;4.60;;
42364;SDS011;28498;54.400;18.566;2022-08-04T08:20:25;7.32;;;5.00;;
42364;SDS011;28498;54.400;18.566;2022-08-04T08:22:55;7.30;;;4.43;;
42364;SDS011;28498;54.400;18.566;2022-08-04T08:25:22;7.72;;;4.53;;
42364;SDS011;28498;54.400;18.566;2022-08-04T08:27:50;6.53;;;4.47;;
42364;SDS011;28498;54.400;18.566;2022-08-04T08:30:21;8.43;;;4.72;;
42364;SDS011;28498;54.400;18.566;2022-08-04T08:32:49;7.68;;;4.30;;
42364;SDS011;28498;54.400;18.566;2022-08-04T08:35:16;5.72;;;3.97;;
42364;SDS011;28498;54.400;18.566;2022-08-04T08:37:46;6.57;;;4.10;;
42364;SDS011;28498;54.400;18.566;2022-08-04T09:04:09;6.03;;;3.72;;
42364;SDS011;28498;54.400;18.566;2022-08-04T09:15:09;5.95;;;4.05;;
42364;SDS011;28498;54.400;18.566;2022-08-04T09:20:46;6.55;;;3.97;;
42364;SDS011;28498;54.400;18.566;2022-08-04T09:26:18;6.18;;;3.60;;
42364;SDS011;28498;54.400;18.566;2022-08-04T09:29:13;6.38;;;3.53;;
42364;SDS011;28498;54.400;18.566;2022-08-04T09:37:35;5.85;;;3.92;;
42364;SDS011;28498;54.400;18.566;2022-08-04T09:40:19;6.20;;;3.38;;
42364;SDS011;28498;54.400;18.566;2022-08-04T09:46:28;12.90;;;4.40;;
42364;SDS011;28498;54.400;18.566;2022-08-04T10:00:05;7.70;;;3.40;;
42364;SDS011;28498;54.400;18.566;2022-08-04T10:02:39;7.07;;;4.20;;
42364;SDS011;28498;54.400;18.566;2022-08-04T10:05:16;5.45;;;3.50;;
42364;SDS011;28498;54.400;18.566;2022-08-04T10:07:51;4.10;;;3.47;;
42364;SDS011;28498;54.400;18.566;2022-08-04T10:10:55;8.88;;;3.88;;
42364;SDS011;28498;54.400;18.566;2022-08-04T10:13:41;9.98;;;3.80;;
42364;SDS011;28498;54.400;18.566;2022-08-04T10:23:00;13.02;;;3.50;;
42364;SDS011;28498;54.400;18.566;2022-08-04T10:28:55;6.60;;;3.70;;
42364;SDS011;28498;54.400;18.566;2022-08-04T10:32:36;13.07;;;4.05;;
42364;SDS011;28498;54.400;18.566;2022-08-04T10:34:40;11.65;;;3.67;;
42364;SDS011;28498;54.400;18.566;2022-08-04T10:37:18;10.85;;;3.53;;
42364;SDS011;28498;54.400;18.566;2022-08-04T10:39:51;6.13;;;3.20;;
42364;SDS011;28498;54.400;18.566;2022-08-04T10:42:45;5.90;;;3.03;;
42364;SDS011;28498;54.400;18.566;2022-08-04T10:45:21;6.93;;;3.75;;
42364;SDS011;28498;54.400;18.566;2022-08-04T10:48:10;5.63;;;3.27;;
42364;SDS011;28498;54.400;18.566;2022-08-04T10:51:05;5.28;;;3.00;;
42364;SDS011;28498;54.400;18.566;2022-08-04T10:53:37;5.28;;;3.38;;
42364;SDS011;28498;54.400;18.566;2022-08-04T10:56:08;5.43;;;3.70;;
42364;SDS011;28498;54.400;18.566;2022-08-04T10:58:45;5.80;;;3.25;;
42364;SDS011;28498;54.400;18.566;2022-08-04T11:01:21;5.75;;;3.05;;
42364;SDS011;28498;54.400;18.566;2022-08-04T11:08:03;6.65;;;3.47;;
42364;SDS011;28498;54.400;18.566;2022-08-04T11:10:45;5.78;;;3.53;;
42364;SDS011;28498;54.400;18.566;2022-08-04T11:13:16;7.55;;;3.55;;
42364;SDS011;28498;54.400;18.566;2022-08-04T11:15:55;4.28;;;3.55;;
42364;SDS011;28498;54.400;18.566;2022-08-04T11:18:29;5.75;;;3.60;;
42364;SDS011;28498;54.400;18.566;2022-08-04T11:21:09;7.40;;;3.40;;
42364;SDS011;28498;54.400;18.566;2022-08-04T11:23:43;7.03;;;3.40;;
42364;SDS011;28498;54.400;18.566;2022-08-04T11:26:21;6.45;;;3.22;;
42364;SDS011;28498;54.400;18.566;2022-08-04T11:29:04;5.10;;;3.08;;
42364;SDS011;28498;54.400;18.566;2022-08-04T11:31:40;4.30;;;3.35;;
42364;SDS011;28498;54.400;18.566;2022-08-04T11:34:19;5.10;;;3.20;;
42364;SDS011;28498;54.400;18.566;2022-08-04T11:36:58;7.80;;;3.60;;
42364;SDS011;28498;54.400;18.566;2022-08-04T11:40:06;10.13;;;3.47;;
42364;SDS011;28498;54.400;18.566;2022-08-04T11:42:40;6.40;;;3.58;;
42364;SDS011;28498;54.400;18.566;2022-08-04T11:45:16;5.72;;;3.72;;
42364;SDS011;28498;54.400;18.566;2022-08-04T11:47:54;9.02;;;4.00;;
42364;SDS011;28498;54.400;18.566;2022-08-04T11:50:46;6.78;;;3.40;;
42364;SDS011;28498;54.400;18.566;2022-08-04T11:53:20;7.35;;;3.78;;
42364;SDS011;28498;54.400;18.566;2022-08-04T11:55:51;8.98;;;4.03;;
42364;SDS011;28498;54.400;18.566;2022-08-04T11:58:34;8.85;;;3.63;;
42364;SDS011;28498;54.400;18.566;2022-08-04T12:03:31;5.55;;;3.75;;
42364;SDS011;28498;54.400;18.566;2022-08-04T12:06:43;8.27;;;3.72;;
42364;SDS011;28498;54.400;18.566;2022-08-04T12:12:24;7.35;;;4.00;;
42364;SDS011;28498;54.400;18.566;2022-08-04T12:17:37;5.78;;;3.55;;
42364;SDS011;28498;54.400;18.566;2022-08-04T12:20:29;7.95;;;3.95;;
42364;SDS011;28498;54.400;18.566;2022-08-04T12:27:04;5.22;;;3.53;;
42364;SDS011;28498;54.400;18.566;2022-08-04T12:29:44;6.35;;;4.18;;
42364;SDS011;28498;54.400;18.566;2022-08-04T12:35:14;8.25;;;3.50;;
42364;SDS011;28498;54.400;18.566;2022-08-04T12:37:49;5.65;;;3.50;;
42364;SDS011;28498;54.400;18.566;2022-08-04T12:40:19;5.28;;;3.28;;
42364;SDS011;28498;54.400;18.566;2022-08-04T12:43:05;5.68;;;3.70;;
42364;SDS011;28498;54.400;18.566;2022-08-04T12:45:40;8.10;;;3.25;;
42364;SDS011;28498;54.400;18.566;2022-08-04T12:48:14;7.85;;;4.47;;
42364;SDS011;28498;54.400;18.566;2022-08-04T12:50:47;6.50;;;3.40;;
42364;SDS011;28498;54.400;18.566;2022-08-04T12:53:17;8.57;;;3.42;;
42364;SDS011;28498;54.400;18.566;2022-08-04T12:55:57;7.80;;;3.25;;
42364;SDS011;28498;54.400;18.566;2022-08-04T12:58:28;7.47;;;3.42;;
42364;SDS011;28498;54.400;18.566;2022-08-04T13:01:30;8.48;;;4.05;;
42364;SDS011;28498;54.400;18.566;2022-08-04T13:04:21;8.07;;;3.70;;
42364;SDS011;28498;54.400;18.566;2022-08-04T13:07:02;5.00;;;3.65;;
42364;SDS011;28498;54.400;18.566;2022-08-04T13:09:35;8.18;;;4.18;;
42364;SDS011;28498;54.400;18.566;2022-08-04T13:12:22;6.75;;;3.72;;
42364;SDS011;28498;54.400;18.566;2022-08-04T13:14:59;5.82;;;3.95;;
42364;SDS011;28498;54.400;18.566;2022-08-04T13:17:45;5.97;;;3.40;;
42364;SDS011;28498;54.400;18.566;2022-08-04T13:20:28;5.07;;;3.47;;
42364;SDS011;28498;54.400;18.566;2022-08-04T13:23:07;7.47;;;3.85;;
42364;SDS011;28498;54.400;18.566;2022-08-04T13:25:47;7.30;;;3.50;;
42364;SDS011;28498;54.400;18.566;2022-08-04T13:28:40;7.32;;;3.53;;
42364;SDS011;28498;54.400;18.566;2022-08-04T13:31:11;6.95;;;3.67;;
42364;SDS011;28498;54.400;18.566;2022-08-04T13:33:43;8.13;;;3.72;;
42364;SDS011;28498;54.400;18.566;2022-08-04T13:36:13;6.53;;;3.67;;
42364;SDS011;28498;54.400;18.566;2022-08-04T13:38:47;5.60;;;3.38;;
42364;SDS011;28498;54.400;18.566;2022-08-04T13:41:20;13.75;;;4.30;;
42364;SDS011;28498;54.400;18.566;2022-08-04T13:43:56;9.43;;;3.65;;
42364;SDS011;28498;54.400;18.566;2022-08-04T13:46:46;6.00;;;3.78;;
42364;SDS011;28498;54.400;18.566;2022-08-04T13:49:17;7.25;;;3.80;;
42364;SDS011;28498;54.400;18.566;2022-08-04T13:52:05;7.93;;;4.10;;
42364;SDS011;28498;54.400;18.566;2022-08-04T13:54:44;6.85;;;4.00;;
42364;SDS011;28498;54.400;18.566;2022-08-04T13:57:22;7.55;;;3.80;;
42364;SDS011;28498;54.400;18.566;2022-08-04T14:00:00;5.15;;;3.58;;
42364;SDS011;28498;54.400;18.566;2022-08-04T14:02:38;6.15;;;3.70;;
42364;SDS011;28498;54.400;18.566;2022-08-04T14:05:15;5.97;;;3.25;;
42364;SDS011;28498;54.400;18.566;2022-08-04T14:08:05;5.70;;;3.83;;
42364;SDS011;28498;54.400;18.566;2022-08-04T14:10:35;5.78;;;3.40;;
42364;SDS011;28498;54.400;18.566;2022-08-04T14:13:03;6.25;;;3.40;;
42364;SDS011;28498;54.400;18.566;2022-08-04T14:15:36;4.72;;;3.75;;
42364;SDS011;28498;54.400;18.566;2022-08-04T14:18:30;5.07;;;3.25;;
42364;SDS011;28498;54.400;18.566;2022-08-04T14:21:01;5.22;;;2.92;;
42364;SDS011;28498;54.400;18.566;2022-08-04T14:23:28;3.78;;;2.80;;
42364;SDS011;28498;54.400;18.566;2022-08-04T14:26:13;4.55;;;3.05;;
42364;SDS011;28498;54.400;18.566;2022-08-04T14:29:09;4.13;;;3.17;;
42364;SDS011;28498;54.400;18.566;2022-08-04T14:32:01;6.15;;;3.10;;
42364;SDS011;28498;54.400;18.566;2022-08-04T14:37:07;5.47;;;3.28;;
42364;SDS011;28498;54.400;18.566;2022-08-04T14:39:53;4.28;;;2.92;;
42364;SDS011;28498;54.400;18.566;2022-08-04T14:42:41;8.93;;;3.60;;
42364;SDS011;28498;54.400;18.566;2022-08-04T14:47:55;4.63;;;3.10;;
42364;SDS011;28498;54.400;18.566;2022-08-04T14:53:05;4.38;;;2.60;;
42364;SDS011;28498;54.400;18.566;2022-08-04T14:55:58;6.40;;;2.90;;
42364;SDS011;28498;54.400;18.566;2022-08-04T14:58:26;6.22;;;3.30;;
42364;SDS011;28498;54.400;18.566;2022-08-04T15:01:04;7.43;;;3.35;;
42364;SDS011;28498;54.400;18.566;2022-08-04T15:03:38;5.93;;;2.95;;
42364;SDS011;28498;54.400;18.566;2022-08-04T15:06:22;6.85;;;2.78;;
42364;SDS011;28498;54.400;18.566;2022-08-04T15:08:52;9.52;;;3.00;;
42364;SDS011;28498;54.400;18.566;2022-08-04T15:11:22;7.93;;;3.40;;
42364;SDS011;28498;54.400;18.566;2022-08-04T15:13:51;8.27;;;2.90;;
42364;SDS011;28498;54.400;18.566;2022-08-04T15:16:20;10.25;;;3.63;;
42364;SDS011;28498;54.400;18.566;2022-08-04T15:18:49;6.60;;;3.88;;
42364;SDS011;28498;54.400;18.566;2022-08-04T15:21:20;10.90;;;3.70;;
42364;SDS011;28498;54.400;18.566;2022-08-04T15:23:48;10.27;;;3.80;;
42364;SDS011;28498;54.400;18.566;2022-08-04T15:26:18;6.95;;;3.58;;
42364;SDS011;28498;54.400;18.566;2022-08-04T15:28:55;10.00;;;4.10;;
42364;SDS011;28498;54.400;18.566;2022-08-04T15:31:27;12.00;;;4.15;;
42364;SDS011;28498;54.400;18.566;2022-08-04T15:34:20;9.98;;;4.32;;
42364;SDS011;28498;54.400;18.566;2022-08-04T15:45:51;8.43;;;3.70;;
42364;SDS011;28498;54.400;18.566;2022-08-04T15:48:39;10.88;;;3.78;;
42364;SDS011;28498;54.400;18.566;2022-08-04T15:51:07;9.07;;;3.72;;
42364;SDS011;28498;54.400;18.566;2022-08-04T15:58:55;20.45;;;4.63;;
42364;SDS011;28498;54.400;18.566;2022-08-04T16:01:22;8.88;;;4.22;;
42364;SDS011;28498;54.400;18.566;2022-08-04T16:03:51;13.25;;;4.07;;
42364;SDS011;28498;54.400;18.566;2022-08-04T16:09:03;12.93;;;4.05;;
42364;SDS011;28498;54.400;18.566;2022-08-04T16:16:30;10.13;;;5.70;;
42364;SDS011;28498;54.400;18.566;2022-08-04T16:19:30;11.23;;;4.68;;
42364;SDS011;28498;54.400;18.566;2022-08-04T16:25:42;15.20;;;5.32;;
42364;SDS011;28498;54.400;18.566;2022-08-04T16:31:02;12.80;;;5.32;;
42364;SDS011;28498;54.400;18.566;2022-08-04T16:33:30;11.27;;;4.88;;
42364;SDS011;28498;54.400;18.566;2022-08-04T16:36:10;8.52;;;4.82;;
42364;SDS011;28498;54.400;18.566;2022-08-04T16:41:41;11.48;;;5.72;;
42364;SDS011;28498;54.400;18.566;2022-08-04T16:44:43;7.05;;;5.13;;
42364;SDS011;28498;54.400;18.566;2022-08-04T16:47:18;9.45;;;5.50;;
42364;SDS011;28498;54.400;18.566;2022-08-04T16:50:14;9.65;;;4.97;;
42364;SDS011;28498;54.400;18.566;2022-08-04T16:52:47;9.75;;;5.07;;
42364;SDS011;28498;54.400;18.566;2022-08-04T16:55:16;10.05;;;5.43;;
42364;SDS011;28498;54.400;18.566;2022-08-04T16:57:45;7.57;;;5.10;;
42364;SDS011;28498;54.400;18.566;2022-08-04T17:00:13;10.00;;;5.18;;
42364;SDS011;28498;54.400;18.566;2022-08-04T17:02:40;10.23;;;5.50;;
42364;SDS011;28498;54.400;18.566;2022-08-04T17:05:21;9.48;;;5.53;;
42364;SDS011;28498;54.400;18.566;2022-08-04T17:08:05;13.50;;;5.18;;
42364;SDS011;28498;54.400;18.566;2022-08-04T17:10:53;8.57;;;5.18;;
42364;SDS011;28498;54.400;18.566;2022-08-04T17:16:14;8.43;;;5.75;;
42364;SDS011;28498;54.400;18.566;2022-08-04T17:18:45;6.85;;;5.13;;
42364;SDS011;28498;54.400;18.566;2022-08-04T17:21:30;8.52;;;5.55;;
42364;SDS011;28498;54.400;18.566;2022-08-04T17:24:00;7.80;;;5.20;;
42364;SDS011;28498;54.400;18.566;2022-08-04T17:26:43;8.45;;;5.00;;
42364;SDS011;28498;54.400;18.566;2022-08-04T17:29:20;8.15;;;5.10;;
42364;SDS011;28498;54.400;18.566;2022-08-04T17:32:11;8.20;;;5.70;;
42364;SDS011;28498;54.400;18.566;2022-08-04T17:34:39;6.30;;;5.22;;
42364;SDS011;28498;54.400;18.566;2022-08-04T17:37:09;8.70;;;5.65;;
42364;SDS011;28498;54.400;18.566;2022-08-04T17:40:06;8.65;;;5.72;;
42364;SDS011;28498;54.400;18.566;2022-08-04T17:42:43;8.38;;;6.03;;
42364;SDS011;28498;54.400;18.566;2022-08-04T17:45:17;8.45;;;5.00;;
42364;SDS011;28498;54.400;18.566;2022-08-04T17:48:07;8.00;;;5.38;;
42364;SDS011;28498;54.400;18.566;2022-08-04T17:50:50;8.82;;;5.70;;
42364;SDS011;28498;54.400;18.566;2022-08-04T17:53:17;9.55;;;5.88;;
42364;SDS011;28498;54.400;18.566;2022-08-04T17:56:30;6.60;;;5.80;;
42364;SDS011;28498;54.400;18.566;2022-08-04T17:59:24;8.00;;;6.18;;
42364;SDS011;28498;54.400;18.566;2022-08-04T18:02:21;7.93;;;6.05;;
42364;SDS011;28498;54.400;18.566;2022-08-04T18:04:59;7.05;;;5.38;;
42364;SDS011;28498;54.400;18.566;2022-08-04T18:07:38;10.20;;;6.22;;
42364;SDS011;28498;54.400;18.566;2022-08-04T18:10:39;8.77;;;6.65;;
42364;SDS011;28498;54.400;18.566;2022-08-04T18:13:21;9.07;;;6.22;;
42364;SDS011;28498;54.400;18.566;2022-08-04T18:15:59;10.52;;;6.00;;
42364;SDS011;28498;54.400;18.566;2022-08-04T18:18:28;8.00;;;5.80;;
42364;SDS011;28498;54.400;18.566;2022-08-04T18:20:55;7.40;;;6.70;;
42364;SDS011;28498;54.400;18.566;2022-08-04T18:23:25;9.88;;;6.40;;
42364;SDS011;28498;54.400;18.566;2022-08-04T18:25:56;7.07;;;6.35;;
42364;SDS011;28498;54.400;18.566;2022-08-04T18:28:24;6.78;;;5.60;;
42364;SDS011;28498;54.400;18.566;2022-08-04T18:30:52;8.32;;;5.95;;
42364;SDS011;28498;54.400;18.566;2022-08-04T18:33:21;7.00;;;6.13;;
42364;SDS011;28498;54.400;18.566;2022-08-04T18:36:07;9.40;;;6.32;;
42364;SDS011;28498;54.400;18.566;2022-08-04T18:38:56;7.85;;;6.63;;
42364;SDS011;28498;54.400;18.566;2022-08-04T18:41:39;9.03;;;6.30;;
42364;SDS011;28498;54.400;18.566;2022-08-04T18:44:26;10.27;;;6.88;;
42364;SDS011;28498;54.400;18.566;2022-08-04T18:46:56;9.65;;;6.65;;
42364;SDS011;28498;54.400;18.566;2022-08-04T18:49:43;8.82;;;6.45;;
42364;SDS011;28498;54.400;18.566;2022-08-04T18:52:30;10.63;;;7.18;;
42364;SDS011;28498;54.400;18.566;2022-08-04T18:54:58;11.10;;;7.60;;
42364;SDS011;28498;54.400;18.566;2022-08-04T18:57:28;11.38;;;7.82;;
42364;SDS011;28498;54.400;18.566;2022-08-04T19:00:18;9.75;;;8.23;;
42364;SDS011;28498;54.400;18.566;2022-08-04T19:02:45;9.18;;;7.35;;
42364;SDS011;28498;54.400;18.566;2022-08-04T19:05:13;11.20;;;7.03;;
42364;SDS011;28498;54.400;18.566;2022-08-04T19:07:42;9.73;;;7.22;;
42364;SDS011;28498;54.400;18.566;2022-08-04T19:10:29;9.70;;;7.20;;
42364;SDS011;28498;54.400;18.566;2022-08-04T19:12:56;16.30;;;8.07;;
42364;SDS011;28498;54.400;18.566;2022-08-04T19:15:25;10.48;;;8.48;;
42364;SDS011;28498;54.400;18.566;2022-08-04T19:18:00;10.15;;;8.13;;
42364;SDS011;28498;54.400;18.566;2022-08-04T19:20:32;8.48;;;7.43;;
42364;SDS011;28498;54.400;18.566;2022-08-04T19:23:05;21.13;;;11.73;;
42364;SDS011;28498;54.400;18.566;2022-08-04T19:25:52;11.35;;;8.95;;
42364;SDS011;28498;54.400;18.566;2022-08-04T19:28:29;12.52;;;8.00;;
42364;SDS011;28498;54.400;18.566;2022-08-04T19:31:04;15.15;;;8.88;;
42364;SDS011;28498;54.400;18.566;2022-08-04T19:33:33;11.98;;;7.85;;
42364;SDS011;28498;54.400;18.566;2022-08-04T19:36:21;11.23;;;8.07;;
42364;SDS011;28498;54.400;18.566;2022-08-04T19:38:54;11.43;;;7.73;;
42364;SDS011;28498;54.400;18.566;2022-08-04T19:41:23;13.57;;;9.27;;
42364;SDS011;28498;54.400;18.566;2022-08-04T19:43:51;12.32;;;8.35;;
42364;SDS011;28498;54.400;18.566;2022-08-04T19:46:19;12.23;;;8.48;;
42364;SDS011;28498;54.400;18.566;2022-08-04T19:48:51;9.95;;;8.27;;
42364;SDS011;28498;54.400;18.566;2022-08-04T19:51:26;10.57;;;8.35;;
42364;SDS011;28498;54.400;18.566;2022-08-04T19:53:54;19.45;;;9.45;;
42364;SDS011;28498;54.400;18.566;2022-08-04T19:56:33;12.73;;;8.85;;
42364;SDS011;28498;54.400;18.566;2022-08-04T19:59:06;11.60;;;8.38;;
42364;SDS011;28498;54.400;18.566;2022-08-04T20:01:34;17.98;;;9.18;;
42364;SDS011;28498;54.400;18.566;2022-08-04T20:04:10;13.52;;;8.07;;
42364;SDS011;28498;54.400;18.566;2022-08-04T20:06:38;15.45;;;8.98;;
42364;SDS011;28498;54.400;18.566;2022-08-04T20:09:05;11.25;;;8.38;;